Strona główna
METAR-TAF:

METAR-TAF

Lotnisko :

Washington, Indiana, Stany Zjednoczone

Szerokość geograficzna: 38-42-02N, Długość geograficzna: 087-07-47W, wysokość: 144 m

Aktualna obserwacja pogody

Raport powstał 12 minut temu, godzina 22:35 UTC
Wiatr 5 kt od zachodnio-południowy zachód
Temperatura -3°C
Wilgotność 63%
Ciśnienie 1027 hPa
Widzialność: 16.1 km
bezchmurnie

METAR: KDCY 102235Z AUTO 25005KT 10SM CLR M03/M09 A3033 RMK AO2 T10271088

czas: 17:47 (22:47 UTC)


TAF: brakujący

Obserwacja i prognoza pogody dla ponad 4000 lotnisk (raport METAR i TAF).

Dostępne stacje oznaczono żółtymi i czerwonymi punktami na mapie.

Najedź kursorem aby zobaczyć nazwę stacji.

Kliknij aby zobaczyć obserwacje i prognozy pogody.

Aby zmienić mapę: kliknij na zielony przycisk z czarnym krzyżykiem, aby powiększyć; na zielony przycisk z myślnikiem, aby pomniejszyć; na zielone strzałki, aby przejść do map sąsiednich.


METAR-TAF: